Time;durP1;ratioP1;P1;durP2;ratioP2;P2;SDS_P1;SDS_P2;PMS_P1;PMS_P2;Temp;Humidity;BMP_temperature;BMP_pressure;BME280_temperature;BME280_humidity;BME280_pressure;Samples;Min_cycle;Max_cycle;Signal;HPM_P1;HPM_P2
2022/06/28 00:01:44;;;;;;;;;0.00;0.00;;;;;-146.67;29.21;74040.75;5044429;28;61764;-77
2022/06/28 00:04:11;;;;;;;;;0.00;0.00;;;;;-146.67;29.44;74044.75;5042330;28;62054;-77
2022/06/28 00:06:37;;;;;;;;;0.00;0.00;;;;;-146.67;29.32;74042.75;5043893;28;62107;-77
2022/06/28 00:09:03;;;;;;;;;0.00;0.00;;;;;-146.67;29.24;74036.75;5043874;28;62001;-77
2022/06/28 00:11:28;;;;;;;;;0.00;0.00;;;;;-146.67;29.48;74040.75;5042142;28;62051;-77
2022/06/28 00:13:54;;;;;;;;;0.00;0.00;;;;;-146.67;29.52;74036.75;5044390;28;62146;-77
2022/06/28 00:16:19;;;;;;;;;0.00;0.00;;;;;-146.67;29.39;74044.75;5043534;28;61908;-77
2022/06/28 00:18:45;;;;;;;;;0.00;0.00;;;;;-146.67;29.35;74040.75;5044061;28;61894;-77
2022/06/28 00:21:12;;;;;;;;;0.00;0.00;;;;;-146.67;29.44;74040.75;5044403;28;62073;-77
2022/06/28 00:23:39;;;;;;;;;0.00;0.00;;;;;-146.67;29.62;74046.75;5043886;28;61940;-77
2022/06/28 00:26:06;;;;;;;;;0.00;0.00;;;;;-146.67;29.74;74052.72;5025107;28;64927;-77
2022/06/28 00:28:32;;;;;;;;;0.00;0.00;;;;;-146.67;29.74;74056.72;5044154;28;62004;-77
2022/06/28 00:30:58;;;;;;;;;0.00;0.00;;;;;-146.67;29.38;74048.75;5043926;28;61908;-77
2022/06/28 00:33:23;;;;;;;;;0.00;0.00;;;;;-146.67;29.54;74050.72;5044104;28;61930;-76
2022/06/28 00:35:49;;;;;;;;;0.00;0.00;;;;;-146.67;29.37;74050.72;5042283;28;61870;-77
2022/06/28 00:38:16;;;;;;;;;0.00;0.00;;;;;-146.67;29.52;74044.75;5043678;28;62020;-77
2022/06/28 00:40:48;;;;;;;;;0.00;0.00;;;;;-146.67;29.62;74056.72;5043849;28;61973;-77
2022/06/28 00:43:15;;;;;;;;;0.00;0.00;;;;;-146.67;29.63;74064.72;5043876;28;61913;-77
2022/06/28 00:45:43;;;;;;;;;0.00;0.00;;;;;-146.67;29.61;74050.72;5025157;28;65105;-77
2022/06/28 00:48:13;;;;;;;;;0.00;0.00;;;;;-146.67;29.75;74066.69;5025651;28;62483;-77
2022/06/28 00:50:38;;;;;;;;;0.00;0.00;;;;;-146.67;29.92;74060.72;5043969;28;61783;-77
2022/06/28 00:53:12;;;;;;;;;0.00;0.00;;;;;-146.67;29.99;74058.72;5043014;28;62099;-77
2022/06/28 00:55:38;;;;;;;;;0.00;0.00;;;;;-146.67;29.80;74062.72;5042861;28;62601;-77
2022/06/28 00:58:05;;;;;;;;;0.00;0.00;;;;;-146.67;29.60;74058.72;5043226;28;61966;-77
2022/06/28 01:00:34;;;;;;;;;0.00;0.00;;;;;-146.67;29.80;74068.69;5042847;28;61983;-77
2022/06/28 01:03:00;;;;;;;;;0.00;0.00;;;;;-146.67;29.89;74070.69;5043348;28;62013;-77
2022/06/28 01:05:26;;;;;;;;;0.00;0.00;;;;;-146.67;29.66;74066.69;5025149;28;63560;-77
2022/06/28 01:07:51;;;;;;;;;0.00;0.00;;;;;-146.67;29.93;74076.69;5043076;28;62253;-77
2022/06/28 01:10:17;;;;;;;;;0.00;0.00;;;;;-146.67;29.88;74082.69;5043177;28;62162;-77
2022/06/28 01:12:42;;;;;;;;;0.00;0.00;;;;;-146.67;29.72;74068.69;5043758;28;62258;-76
2022/06/28 01:15:08;;;;;;;;;0.00;0.00;;;;;-146.67;30.15;74078.69;5042475;28;62631;-77
2022/06/28 01:17:34;;;;;;;;;0.00;0.00;;;;;-146.67;29.76;74074.69;5043361;28;61833;-77
2022/06/28 01:19:59;;;;;;;;;0.00;0.00;;;;;-146.67;30.15;74082.69;5043051;28;61931;-77
2022/06/28 01:22:28;;;;;;;;;0.00;0.00;;;;;-146.67;29.52;74080.69;5039473;28;62041;-76
2022/06/28 01:24:54;;;;;;;;;0.00;0.00;;;;;-146.67;30.02;74098.66;5023632;28;64000;-77
2022/06/28 01:27:19;;;;;;;;;0.00;0.00;;;;;-146.67;30.24;74112.63;5043128;28;61711;-77
2022/06/28 01:29:45;;;;;;;;;0.00;0.00;;;;;-146.67;29.77;74106.63;5043130;28;62258;-77
2022/06/28 01:32:14;;;;;;;;;0.00;0.00;;;;;-146.67;30.45;74102.63;5025276;28;61855;-77
2022/06/28 01:34:39;;;;;;;;;0.00;0.00;;;;;-146.67;30.20;74100.63;5042562;28;62450;-77
2022/06/28 01:37:06;;;;;;;;;0.00;0.00;;;;;-146.67;29.98;74100.63;5042600;28;61924;-77
2022/06/28 01:39:32;;;;;;;;;0.00;0.00;;;;;-146.67;30.03;74100.63;5042795;28;61989;-77
2022/06/28 01:41:58;;;;;;;;;0.00;0.00;;;;;-146.67;30.12;74094.66;5042983;28;61822;-77
2022/06/28 01:44:25;;;;;;;;;0.00;0.00;;;;;-146.67;30.01;74098.66;5042264;28;62849;-77
2022/06/28 01:46:51;;;;;;;;;0.00;0.00;;;;;-146.67;30.26;74100.63;5024838;28;62116;-77
2022/06/28 01:49:16;;;;;;;;;0.00;0.00;;;;;-146.67;30.50;74116.59;5042576;28;61844;-77
2022/06/28 01:51:41;;;;;;;;;0.00;0.00;;;;;-146.67;30.39;74110.63;5043082;28;61919;-77
2022/06/28 01:54:07;;;;;;;;;0.00;0.00;;;;;-146.67;30.20;74116.59;5041156;28;61829;-77
2022/06/28 01:56:32;;;;;;;;;0.00;0.00;;;;;-146.67;30.50;74128.59;5042677;28;61821;-76
2022/06/28 01:58:58;;;;;;;;;0.00;0.00;;;;;-146.67;30.33;74128.59;5042192;28;61758;-77
2022/06/28 02:01:23;;;;;;;;;0.00;0.00;;;;;-146.67;30.44;74110.63;5042868;28;61771;-77
2022/06/28 02:03:51;;;;;;;;;0.00;0.00;;;;;-146.67;30.26;74106.63;5041980;28;61954;-77
2022/06/28 02:06:17;;;;;;;;;0.00;0.00;;;;;-146.67;30.23;74118.59;5042294;28;61834;-77
2022/06/28 02:08:42;;;;;;;;;0.00;0.00;;;;;-146.67;30.06;74124.59;5042276;28;61891;-77
2022/06/28 02:11:08;;;;;;;;;0.00;0.00;;;;;-146.67;30.39;74128.59;5042264;28;62016;-77
2022/06/28 02:13:33;;;;;;;;;0.00;0.00;;;;;-146.67;30.06;74142.56;5041772;28;62731;-77
2022/06/28 02:15:59;;;;;;;;;0.00;0.00;;;;;-146.67;30.27;74148.56;5043232;28;61154;-77
2022/06/28 02:18:24;;;;;;;;;0.00;0.00;;;;;-146.67;30.43;74152.53;5043822;28;61723;-77
2022/06/28 02:20:50;;;;;;;;;0.00;0.00;;;;;-146.67;30.43;74156.53;5042536;28;62089;-77
2022/06/28 02:23:15;;;;;;;;;0.00;0.00;;;;;-146.67;30.66;74150.53;5040778;28;61985;-77
2022/06/28 02:25:40;;;;;;;;;0.00;0.00;;;;;-146.67;30.52;74144.56;5041810;28;61957;-77
2022/06/28 02:28:06;;;;;;;;;0.00;0.00;;;;;-146.67;30.32;74136.56;5042269;28;61922;-77
2022/06/28 02:30:31;;;;;;;;;0.00;0.00;;;;;-146.67;30.23;74144.56;5042030;28;62056;-77
2022/06/28 02:32:57;;;;;;;;;0.00;0.00;;;;;-146.67;30.37;74156.53;5041659;28;62161;-77
2022/06/28 02:40:50;;;;;;;;;0.00;0.00;;;;;-146.67;30.19;74158.53;5042473;28;62056;-77
2022/06/28 02:43:16;;;;;;;;;0.00;0.00;;;;;-146.67;30.13;74168.50;5040946;28;62951;-77
2022/06/28 02:45:42;;;;;;;;;0.00;0.00;;;;;-146.67;30.65;74174.50;5024154;28;61823;-77
2022/06/28 02:48:08;;;;;;;;;0.00;0.00;;;;;-146.67;30.52;74170.50;5042222;28;62021;-77
2022/06/28 02:50:34;;;;;;;;;0.00;0.00;;;;;-146.67;30.29;74174.50;5042027;28;61810;-77
2022/06/28 02:52:59;;;;;;;;;0.00;0.00;;;;;-146.67;30.28;74176.50;5040843;28;62735;-77
2022/06/28 02:55:26;;;;;;;;;0.00;0.00;;;;;-146.67;30.38;74184.47;5041539;28;61880;-78
2022/06/28 02:57:51;;;;;;;;;0.00;0.00;;;;;-146.67;30.48;74188.47;5042019;28;61962;-77
2022/06/28 03:00:18;;;;;;;;;0.00;0.00;;;;;-146.67;30.23;74188.47;5041798;28;61764;-78
2022/06/28 03:02:46;;;;;;;;;0.00;0.00;;;;;-146.67;30.51;74198.47;5041373;28;61706;-77
2022/06/28 03:05:13;;;;;;;;;0.00;0.00;;;;;-146.67;30.20;74172.50;5041192;28;61890;-77
2022/06/28 03:07:39;;;;;;;;;0.00;0.00;;;;;-146.67;30.07;74192.47;5041692;28;61836;-77
2022/06/28 03:10:06;;;;;;;;;0.00;0.00;;;;;-146.67;30.20;74184.47;5042205;28;61820;-77
2022/06/28 03:12:31;;;;;;;;;0.00;0.00;;;;;-146.67;30.04;74186.47;5040992;28;61992;-77
2022/06/28 03:14:57;;;;;;;;;0.00;0.00;;;;;-146.67;30.06;74188.47;5041677;28;61865;-78
2022/06/28 03:17:22;;;;;;;;;0.00;0.00;;;;;-146.67;30.09;74206.44;5041788;28;61766;-77
2022/06/28 03:19:48;;;;;;;;;0.00;0.00;;;;;-146.67;30.37;74216.44;5041540;28;62030;-77
2022/06/28 03:22:13;;;;;;;;;0.00;0.00;;;;;-146.67;30.31;74216.44;5040777;28;61865;-77
2022/06/28 03:24:39;;;;;;;;;0.00;0.00;;;;;-146.67;30.57;74212.44;5044345;28;61696;-77
2022/06/28 03:27:04;;;;;;;;;0.00;0.00;;;;;-146.67;30.21;74202.44;5045097;28;61629;-77
2022/06/28 03:29:30;;;;;;;;;0.00;0.00;;;;;-146.67;30.32;74198.47;5044957;28;62112;-77
2022/06/28 03:31:55;;;;;;;;;0.00;0.00;;;;;-146.67;30.26;74212.44;5044532;28;61840;-77
2022/06/28 03:34:21;;;;;;;;;0.00;0.00;;;;;-146.67;30.43;74210.44;5044448;28;62179;-77
2022/06/28 03:36:46;;;;;;;;;0.00;0.00;;;;;-146.67;30.32;74218.41;5044572;28;62265;-77
2022/06/28 03:39:13;;;;;;;;;0.00;0.00;;;;;-146.67;30.63;74230.41;5044619;28;61934;-77
2022/06/28 03:41:38;;;;;;;;;0.00;0.00;;;;;-146.67;30.32;74228.41;5043974;28;61856;-77
2022/06/28 03:44:04;;;;;;;;;0.00;0.00;;;;;-146.67;30.42;74234.38;5044898;28;62102;-78
2022/06/28 03:46:29;;;;;;;;;0.00;0.00;;;;;-146.67;30.46;74232.41;5044590;28;61983;-77
2022/06/28 03:48:55;;;;;;;;;0.00;0.00;;;;;-146.67;30.65;74238.38;5026727;28;61842;-77
2022/06/28 03:51:20;;;;;;;;;0.00;0.00;;;;;-146.67;30.85;74234.38;5044035;28;61782;-78
2022/06/28 03:53:46;;;;;;;;;0.00;0.00;;;;;-146.67;30.41;74234.38;5044063;28;61972;-77
2022/06/28 03:56:11;;;;;;;;;0.00;0.00;;;;;-146.67;30.80;74228.41;5044740;28;62185;-77
2022/06/28 03:58:37;;;;;;;;;0.00;0.00;;;;;-146.67;30.34;74216.44;5026253;28;62176;-77
2022/06/28 04:01:02;;;;;;;;;0.00;0.00;;;;;-146.67;30.48;74204.44;5044028;28;61924;-77
2022/06/28 04:03:30;;;;;;;;;0.00;0.00;;;;;-146.67;30.47;74204.44;5044301;28;61884;-77
2022/06/28 04:05:58;;;;;;;;;0.00;0.00;;;;;-146.67;30.26;74210.44;5026555;28;61759;-77
2022/06/28 04:08:25;;;;;;;;;0.00;0.00;;;;;-146.67;30.39;74218.41;5044043;28;62144;-77
2022/06/28 04:11:13;;;;;;;;;0.00;0.00;;;;;-146.67;30.41;74220.41;5044160;28;61942;-77
2022/06/28 04:13:38;;;;;;;;;0.00;0.00;;;;;-146.67;30.60;74224.41;5043898;28;61758;-77
2022/06/28 04:16:04;;;;;;;;;0.00;0.00;;;;;-146.67;30.60;74218.41;5026496;28;61799;-77
2022/06/28 04:18:30;;;;;;;;;0.00;0.00;;;;;-146.67;30.66;74218.41;5044207;28;62092;-77
2022/06/28 04:20:56;;;;;;;;;0.00;0.00;;;;;-146.67;30.21;74212.44;5043400;28;62075;-77
2022/06/28 04:23:21;;;;;;;;;0.00;0.00;;;;;-146.67;30.41;74204.44;5043597;28;61819;-77
2022/06/28 04:25:46;;;;;;;;;0.00;0.00;;;;;-146.67;30.31;74206.44;5043955;28;61908;-77
2022/06/28 04:28:12;;;;;;;;;0.00;0.00;;;;;-146.67;30.49;74200.44;5044447;28;61880;-77
2022/06/28 04:30:37;;;;;;;;;0.00;0.00;;;;;-146.67;30.36;74198.47;5041800;28;63699;-77
2022/06/28 04:33:03;;;;;;;;;0.00;0.00;;;;;-146.67;30.32;74196.47;5043965;28;62099;-77
2022/06/28 04:35:28;;;;;;;;;0.00;0.00;;;;;-146.67;30.12;74190.47;5024710;28;62199;-78
2022/06/28 04:37:54;;;;;;;;;0.00;0.00;;;;;-146.67;30.34;74186.47;5024795;28;62009;-77
2022/06/28 04:40:19;;;;;;;;;0.00;0.00;;;;;-146.67;30.47;74170.50;5042567;28;63038;-77
2022/06/28 04:42:44;;;;;;;;;0.00;0.00;;;;;-146.67;30.19;74174.50;5043299;28;62242;-77
2022/06/28 04:45:10;;;;;;;;;0.00;0.00;;;;;-146.67;29.92;74172.50;5042476;28;62190;-77
2022/06/28 04:47:36;;;;;;;;;0.00;0.00;;;;;-146.67;30.24;74176.50;5025103;28;62160;-79
2022/06/28 04:50:01;;;;;;;;;0.00;0.00;;;;;-146.67;30.17;74176.50;5042998;28;62586;-77
2022/06/28 04:52:27;;;;;;;;;0.00;0.00;;;;;-146.67;29.92;74176.50;5043060;28;61804;-77
2022/06/28 04:54:52;;;;;;;;;0.00;0.00;;;;;-146.67;29.86;74178.50;5042824;28;62000;-78
2022/06/28 04:57:17;;;;;;;;;0.00;0.00;;;;;-146.67;29.82;74168.50;5025338;28;61911;-78
2022/06/28 04:59:43;;;;;;;;;0.00;0.00;;;;;-146.67;29.55;74168.50;5042045;28;62211;-77
2022/06/28 05:02:10;;;;;;;;;0.00;0.00;;;;;-146.67;29.85;74192.47;5043477;28;61797;-79
2022/06/28 05:04:35;;;;;;;;;0.00;0.00;;;;;-146.67;29.38;74190.47;5043559;28;61710;-79
2022/06/28 05:07:01;;;;;;;;;0.00;0.00;;;;;-146.67;29.37;74164.53;5043591;28;61814;-78
2022/06/28 05:09:26;;;;;;;;;0.00;0.00;;;;;-146.67;29.46;74160.53;5042734;28;61881;-78
2022/06/28 05:11:51;;;;;;;;;0.00;0.00;;;;;-146.67;29.32;74152.53;5043190;28;61879;-78
2022/06/28 05:14:17;;;;;;;;;0.00;0.00;;;;;-146.67;29.13;74136.56;5025495;28;61827;-78
2022/06/28 05:16:42;;;;;;;;;0.00;0.00;;;;;-146.67;29.13;74140.56;5024193;28;61832;-75
2022/06/28 05:19:08;;;;;;;;;0.00;0.00;;;;;-146.67;29.38;74154.53;5041123;28;61729;-81
2022/06/28 05:21:33;;;;;;;;;0.00;0.00;;;;;-146.67;29.38;74140.56;5041468;28;62032;-81
2022/06/28 05:23:59;;;;;;;;;0.00;0.00;;;;;-146.67;29.07;74138.56;5041246;28;61838;-82
2022/06/28 05:26:25;;;;;;;;;0.00;0.00;;;;;-146.67;29.23;74116.59;5041786;28;62062;-82
2022/06/28 05:28:51;;;;;;;;;0.00;0.00;;;;;-146.67;29.26;74100.63;5040716;28;62741;-78
2022/06/28 05:31:16;;;;;;;;;0.00;0.00;;;;;-146.67;29.22;74088.66;5041258;28;62173;-79
2022/06/28 05:33:42;;;;;;;;;0.00;0.00;;;;;-146.67;28.96;74084.66;5041626;28;61750;-79
2022/06/28 05:36:07;;;;;;;;;0.00;0.00;;;;;-146.67;28.61;74072.69;5024315;28;61978;-79
2022/06/28 05:38:32;;;;;;;;;0.00;0.00;;;;;-146.67;28.53;74010.81;5041351;28;61889;-78
2022/06/28 05:40:58;;;;;;;;;0.00;0.00;;;;;-146.67;27.71;73930.97;5041944;28;61964;-78
2022/06/28 05:43:23;;;;;;;;;0.00;0.00;;;;;-146.67;27.39;73833.16;5040317;28;61905;-76
2022/06/28 05:45:49;;;;;;;;;0.00;0.00;;;;;-146.67;26.73;73745.31;5041796;28;62088;-77
2022/06/28 05:48:14;;;;;;;;;0.00;0.00;;;;;-146.67;26.44;73669.47;5042118;28;61707;-78
2022/06/28 05:50:40;;;;;;;;;0.00;0.00;;;;;-146.67;26.05;73605.59;5042651;28;61881;-77
2022/06/28 05:53:06;;;;;;;;;0.00;0.00;;;;;-146.67;26.18;73579.66;5023755;28;62000;-82
2022/06/28 05:55:31;;;;;;;;;0.00;0.00;;;;;-146.67;25.98;73553.72;5042370;28;62081;-83
2022/06/28 05:57:57;;;;;;;;;0.00;0.00;;;;;-146.67;25.86;73543.72;5040970;28;62256;-83
2022/06/28 06:00:22;;;;;;;;;0.00;0.00;;;;;-146.67;25.83;73547.72;5041651;28;61881;-84
2022/06/28 06:02:48;;;;;;;;;0.00;0.00;;;;;-146.67;25.98;73567.69;5042030;28;62125;-84
2022/06/28 06:05:13;;;;;;;;;1.00;1.00;;;;;-146.67;26.13;73627.56;5041741;28;62188;-78
2022/06/28 06:07:39;;;;;;;;;0.00;0.00;;;;;-146.67;26.39;73693.44;5023122;28;64787;-76
2022/06/28 06:10:05;;;;;;;;;0.00;0.00;;;;;-146.67;26.57;73723.38;5024199;28;62048;-78
2022/06/28 06:12:30;;;;;;;;;0.00;0.00;;;;;-146.67;26.71;73757.31;5040179;28;61983;-77
2022/06/28 06:14:58;;;;;;;;;0.00;0.00;;;;;-146.67;26.95;73789.25;5039384;28;62015;-76
2022/06/28 06:17:24;;;;;;;;;0.00;0.00;;;;;-146.67;26.98;73795.22;5039645;28;62042;-77
2022/06/28 06:19:49;;;;;;;;;0.00;0.00;;;;;-146.67;27.15;73795.22;5040714;28;61982;-77
2022/06/28 06:22:15;;;;;;;;;0.00;0.00;;;;;-146.67;27.15;73781.25;5041035;28;61942;-77
2022/06/28 06:24:41;;;;;;;;;0.00;0.00;;;;;-146.67;26.83;73739.34;5040209;28;62302;-77
2022/06/28 06:27:06;;;;;;;;;0.00;0.00;;;;;-146.67;26.56;73681.44;5040109;28;62017;-77
2022/06/28 06:29:32;;;;;;;;;0.00;0.00;;;;;-146.67;25.68;73553.72;5041732;28;61948;-76
2022/06/28 06:31:57;;;;;;;;;0.00;0.00;;;;;-146.67;25.46;73503.81;5041228;28;61739;-77
2022/06/28 06:34:23;;;;;;;;;0.00;0.00;;;;;-146.67;25.50;73517.78;5041020;28;61909;-77
2022/06/28 06:36:50;;;;;;;;;0.00;0.00;;;;;-146.67;25.52;73541.72;5036106;28;62273;-77
2022/06/28 06:39:16;;;;;;;;;0.00;0.00;;;;;-146.67;26.25;73589.63;5040880;28;62209;-79
2022/06/28 06:41:41;;;;;;;;;0.00;0.00;;;;;-146.67;25.82;73593.63;5042208;28;61921;-78
2022/06/28 06:44:07;;;;;;;;;0.00;0.00;;;;;-146.67;25.74;73609.59;5022143;28;62173;-80
2022/06/28 06:46:33;;;;;;;;;0.00;0.00;;;;;-146.67;26.32;73643.53;5040112;28;62058;-81
2022/06/28 06:48:58;;;;;;;;;0.00;0.00;;;;;-146.67;26.42;73643.53;5040994;28;62086;-74
2022/06/28 06:51:24;;;;;;;;;0.00;0.00;;;;;-146.67;25.94;73651.50;5040535;28;61730;-75
2022/06/28 06:53:51;;;;;;;;;0.00;0.00;;;;;-146.67;25.92;73649.50;5040167;28;62600;-75
2022/06/28 06:56:16;;;;;;;;;0.00;0.00;;;;;-146.67;26.38;73659.50;5040989;28;61762;-75
2022/06/28 06:58:41;;;;;;;;;0.00;0.00;;;;;-146.67;26.22;73667.47;5042480;28;61955;-77
2022/06/28 07:01:07;;;;;;;;;0.00;0.00;;;;;-146.67;25.99;73671.47;5043880;28;61786;-79
2022/06/28 07:03:34;;;;;;;;;0.00;0.00;;;;;-146.67;26.13;73675.47;5045047;28;61735;-78
2022/06/28 07:05:59;;;;;;;;;0.00;0.00;;;;;-146.67;25.96;73679.44;5044640;28;61860;-79
2022/06/28 07:08:24;;;;;;;;;0.00;0.00;;;;;-146.67;26.00;73687.44;5044789;28;61983;-81
2022/06/28 07:10:50;;;;;;;;;0.00;0.00;;;;;-146.67;25.98;73691.44;5045362;28;61922;-80
2022/06/28 07:13:16;;;;;;;;;0.00;0.00;;;;;-146.67;25.99;73687.44;5027067;28;62388;-81
2022/06/28 07:15:42;;;;;;;;;0.00;0.00;;;;;-146.67;26.13;73691.44;5044539;28;61975;-81
2022/06/28 07:18:08;;;;;;;;;0.00;0.00;;;;;-146.67;26.33;73679.44;5045120;28;61910;-82
2022/06/28 07:20:33;;;;;;;;;0.00;0.00;;;;;-146.67;26.05;73687.44;5045206;28;61983;-79
2022/06/28 07:22:59;;;;;;;;;0.00;0.00;;;;;-146.67;25.98;73663.47;5044806;28;61768;-77
2022/06/28 07:25:26;;;;;;;;;0.00;0.00;;;;;-146.67;26.18;73663.47;5043757;28;61940;-78
2022/06/28 07:27:51;;;;;;;;;0.00;0.00;;;;;-146.67;26.22;73653.50;5044462;28;62023;-75
2022/06/28 07:30:17;;;;;;;;;0.00;0.00;;;;;-146.67;26.02;73651.50;5045080;28;61991;-81
2022/06/28 07:32:42;;;;;;;;;0.00;0.00;;;;;-146.67;25.89;73643.53;5044684;28;61989;-77
2022/06/28 07:35:08;;;;;;;;;0.00;0.00;;;;;-146.67;25.97;73653.50;5044001;28;61708;-79
2022/06/28 07:37:34;;;;;;;;;0.00;0.00;;;;;-146.67;26.08;73653.50;5044248;28;62335;-80
2022/06/28 07:39:59;;;;;;;;;0.00;0.00;;;;;-146.67;26.08;73651.50;5044366;28;62030;-75
2022/06/28 07:42:25;;;;;;;;;0.00;0.00;;;;;-146.67;26.28;73647.50;5044001;28;61910;-74
2022/06/28 07:44:50;;;;;;;;;0.00;0.00;;;;;-146.67;26.27;73651.50;5043426;28;61810;-75
2022/06/28 07:47:16;;;;;;;;;0.00;0.00;;;;;-146.67;25.93;73643.53;5044023;28;62036;-79
2022/06/28 07:52:36;;;;;;;;;0.00;0.00;;;;;-146.67;25.79;73623.56;5044789;28;61855;-78
2022/06/28 07:55:04;;;;;;;;;0.00;0.00;;;;;-146.67;26.23;73625.56;5025065;28;64692;-82
2022/06/28 07:57:29;;;;;;;;;0.00;0.00;;;;;-146.67;25.88;73623.56;5044711;28;61934;-82
2022/06/28 07:59:55;;;;;;;;;0.00;0.00;;;;;-146.67;25.91;73607.59;5044409;28;61756;-81
2022/06/28 08:02:20;;;;;;;;;0.00;0.00;;;;;-146.67;25.96;73611.59;5044666;28;61741;-80
2022/06/28 08:04:47;;;;;;;;;0.00;0.00;;;;;-146.67;25.82;73619.56;5044042;28;61748;-77
2022/06/28 08:07:13;;;;;;;;;0.00;0.00;;;;;-146.67;25.74;73621.56;5043671;28;61916;-78
2022/06/28 08:09:39;;;;;;;;;0.00;0.00;;;;;-146.67;25.93;73611.59;5042944;28;62060;-79
2022/06/28 08:12:05;;;;;;;;;0.00;0.00;;;;;-146.67;26.15;73605.59;5043826;28;61920;-78
2022/06/28 08:14:31;;;;;;;;;0.00;0.00;;;;;-146.67;25.99;73607.59;5043133;28;61774;-78
2022/06/28 08:16:56;;;;;;;;;0.00;0.00;;;;;-146.67;25.99;73607.59;5043428;28;61813;-78
2022/06/28 08:19:22;;;;;;;;;0.00;0.00;;;;;-146.67;26.10;73591.63;5025246;28;61872;-78
2022/06/28 08:21:49;;;;;;;;;0.00;0.00;;;;;-146.67;25.63;73587.63;5044072;28;61775;-79
2022/06/28 08:24:17;;;;;;;;;0.00;0.00;;;;;-146.67;25.74;73589.63;5042102;28;61711;-77
2022/06/28 08:26:46;;;;;;;;;0.00;0.00;;;;;-146.67;25.22;73595.63;5025665;28;61904;-79
2022/06/28 08:29:12;;;;;;;;;0.00;0.00;;;;;-146.67;25.71;73601.59;5025918;28;62077;-80
2022/06/28 08:31:38;;;;;;;;;0.00;0.00;;;;;-146.67;25.67;73597.63;5044215;28;61909;-80
2022/06/28 08:34:04;;;;;;;;;0.00;0.00;;;;;-146.67;25.57;73599.63;5043398;28;61927;-80
2022/06/28 08:36:29;;;;;;;;;0.00;0.00;;;;;-146.67;25.46;73593.63;5025211;28;62143;-80
2022/06/28 08:38:56;;;;;;;;;0.00;0.00;;;;;-146.67;25.43;73591.63;5042943;28;61928;-77
2022/06/28 08:41:26;;;;;;;;;0.00;0.00;;;;;-146.67;25.76;73601.59;5026023;28;61813;-78
2022/06/28 08:43:52;;;;;;;;;0.00;0.00;;;;;-146.67;25.74;73585.63;5041955;28;63791;-80
2022/06/28 08:46:20;;;;;;;;;0.00;0.00;;;;;-146.67;25.67;73577.66;5043689;28;61743;-76
2022/06/28 08:48:52;;;;;;;;;0.00;0.00;;;;;-146.67;25.50;73577.66;5025129;28;61883;-77
2022/06/28 08:51:17;;;;;;;;;0.00;0.00;;;;;-146.67;25.55;73569.66;5025142;28;61828;-80
2022/06/28 08:53:47;;;;;;;;;0.00;0.00;;;;;-146.67;25.85;73553.72;5042363;28;61966;-80
2022/06/28 08:56:13;;;;;;;;;0.00;0.00;;;;;-146.67;25.86;73545.72;5043435;28;61755;-81
2022/06/28 08:58:43;;;;;;;;;0.00;0.00;;;;;-146.67;25.74;73545.72;5043291;28;61970;-80
2022/06/28 09:01:13;;;;;;;;;0.00;0.00;;;;;-146.67;25.45;73541.72;5022094;28;61953;-81
2022/06/28 09:03:38;;;;;;;;;0.00;0.00;;;;;-146.67;25.85;73525.75;5038670;28;62179;-80
2022/06/28 09:06:05;;;;;;;;;0.00;0.00;;;;;-146.67;25.43;73515.78;5043569;28;62234;-78
2022/06/28 09:08:31;;;;;;;;;0.00;0.00;;;;;-146.67;25.22;73509.78;5042613;28;62075;-78
2022/06/28 09:10:57;;;;;;;;;0.00;0.00;;;;;-146.67;25.55;73505.81;5043474;28;62097;-78
2022/06/28 09:13:22;;;;;;;;;0.00;0.00;;;;;-146.67;25.76;73485.84;5042032;28;63050;-81
2022/06/28 09:15:59;;;;;;;;;0.00;0.00;;;;;-146.67;26.13;73491.84;5043023;28;62012;-78
2022/06/28 09:18:42;;;;;;;;;0.00;0.00;;;;;-146.67;25.50;73493.81;5042976;28;62559;-78
2022/06/28 09:21:10;;;;;;;;;0.00;0.00;;;;;-146.67;25.07;73479.84;5042568;28;61963;-79
2022/06/28 09:23:40;;;;;;;;;0.00;0.00;;;;;-146.67;25.00;73473.88;5041295;28;62141;-80
2022/06/28 09:26:07;;;;;;;;;0.00;0.00;;;;;-146.67;24.66;73461.88;5042301;28;61941;-78
2022/06/28 09:28:34;;;;;;;;;0.00;0.00;;;;;-146.67;24.50;73475.88;5043200;28;61932;-80
2022/06/28 09:31:17;;;;;;;;;0.00;0.00;;;;;-146.67;24.71;73455.91;5043211;28;61705;-80
2022/06/28 09:33:45;;;;;;;;;0.00;0.00;;;;;-146.67;24.63;73441.94;5042544;28;61897;-80
2022/06/28 09:36:13;;;;;;;;;0.00;0.00;;;;;-146.67;24.40;73437.94;5043024;28;61925;-80
2022/06/28 09:38:39;;;;;;;;;0.00;0.00;;;;;-146.67;24.24;73447.91;5042890;28;61969;-79
2022/06/28 09:41:04;;;;;;;;;0.00;0.00;;;;;-146.67;24.25;73437.94;5042994;28;61953;-80
2022/06/28 09:43:33;;;;;;;;;0.00;0.00;;;;;-146.67;24.34;73431.94;5024470;28;63661;-80
2022/06/28 09:46:18;;;;;;;;;0.00;0.00;;;;;-146.67;24.10;73414.00;5024549;28;61896;-83
2022/06/28 09:59:56;;;;;;;;;0.00;0.00;;;;;-146.67;24.05;73404.00;4960476;28;62005;-83
2022/06/28 10:03:25;;;;;;;;;0.00;0.00;;;;;-146.67;24.02;73374.06;4980620;28;61868;-82
2022/06/28 10:09:44;;;;;;;;;;;;;;;;;;;;;
2022/06/28 10:22:36;;;;;;;;;0.00;0.00;;;;;-146.67;23.43;73292.25;4805136;29;62019;-84
2022/06/28 10:50:02;;;;;;;;;0.00;0.00;;;;;-146.67;22.94;73216.41;4712688;29;61931;-74
2022/06/28 11:23:40;;;;;;;;;0.00;0.00;;;;;-146.67;22.54;73078.69;5103734;27;62157;-80
2022/06/28 11:29:05;;;;;;;;;0.00;0.00;;;;;-146.67;22.22;72998.84;5075456;28;61888;-79
2022/06/28 11:31:41;;;;;;;;;0.00;0.00;;;;;-146.67;22.17;72968.94;5074733;28;64896;-80
2022/06/28 11:34:07;;;;;;;;;0.00;0.00;;;;;-146.67;22.36;72933.00;5071337;28;62419;-80
2022/06/28 11:36:33;;;;;;;;;0.00;0.00;;;;;-146.67;21.88;72905.06;5075813;28;62071;-82
2022/06/28 11:39:03;;;;;;;;;0.00;0.00;;;;;-146.67;21.73;72897.09;5075369;28;62236;-81
2022/06/28 11:41:31;;;;;;;;;0.00;0.00;;;;;-146.67;22.04;72895.09;5072872;27;64424;-79
2022/06/28 11:44:02;;;;;;;;;0.00;0.00;;;;;-146.67;21.91;72885.09;5071803;28;61980;-79
2022/06/28 11:46:28;;;;;;;;;0.00;0.00;;;;;-146.67;21.68;72839.22;5075063;27;62113;-79
2022/06/28 11:48:55;;;;;;;;;0.00;0.00;;;;;-146.67;21.32;72797.31;5074812;28;61918;-78
2022/06/28 11:51:32;;;;;;;;;0.00;0.00;;;;;-146.67;20.93;72639.66;5070889;27;62966;-79
2022/06/28 11:53:59;;;;;;;;;0.00;0.00;;;;;-146.67;20.47;72480.00;5080750;27;62073;-79
2022/06/28 11:56:26;;;;;;;;;0.00;0.00;;;;;-146.67;20.24;72336.34;5074264;28;63054;-81
2022/06/28 11:58:52;;;;;;;;;0.00;0.00;;;;;-146.67;19.86;72188.69;5076044;27;62165;-80
2022/06/28 12:01:22;;;;;;;;;0.00;0.00;;;;;-146.67;19.31;72063.00;5073167;27;61953;-79
2022/06/28 12:03:47;;;;;;;;;0.00;0.00;;;;;-146.67;19.05;71929.31;5076509;28;62718;-81
2022/06/28 12:06:20;;;;;;;;;0.00;0.00;;;;;-146.67;18.87;71905.38;5075140;27;62315;-80
2022/06/28 12:08:54;;;;;;;;;0.00;0.00;;;;;-146.67;18.57;71839.53;5083061;27;62196;-79
2022/06/28 12:11:29;;;;;;;;;0.00;0.00;;;;;-146.67;18.20;71759.72;5093281;27;63651;-80
2022/06/28 12:14:19;;;;;;;;;0.00;0.00;;;;;-146.67;18.46;71773.69;5076198;28;62049;-80
2022/06/28 12:16:49;;;;;;;;;0.00;0.00;;;;;-146.67;19.52;71677.94;5074178;28;61961;-79
2022/06/28 12:19:16;;;;;;;;;0.00;0.00;;;;;-146.67;18.46;71598.13;5070156;28;62312;-78
2022/06/28 12:22:01;;;;;;;;;0.00;0.00;;;;;-146.67;18.71;71562.22;5073146;27;61994;-80
2022/06/28 12:24:44;;;;;;;;;0.00;0.00;;;;;-146.67;18.35;71600.13;5064859;28;61816;-85
2022/06/28 12:27:12;;;;;;;;;0.00;0.00;;;;;-146.67;18.06;71494.38;5061187;28;61938;-83
2022/06/28 12:29:38;;;;;;;;;0.00;0.00;;;;;-146.67;18.10;71388.66;5064228;28;61791;-79
2022/06/28 12:32:05;;;;;;;;;0.00;0.00;;;;;-146.67;17.39;71304.88;5059630;28;64517;-79
2022/06/28 12:34:30;;;;;;;;;0.00;0.00;;;;;-146.67;17.25;71231.06;5063697;28;61922;-80
2022/06/28 12:36:56;;;;;;;;;0.00;0.00;;;;;-146.67;17.11;71179.19;5064234;28;61868;-80
2022/06/28 12:39:21;;;;;;;;;0.00;0.00;;;;;-146.67;16.91;71107.38;5069527;28;62111;-80
2022/06/28 12:41:48;;;;;;;;;0.00;0.00;;;;;-146.67;17.00;71057.50;5063066;28;61814;-81
2022/06/28 12:44:14;;;;;;;;;0.00;0.00;;;;;-146.67;16.73;70985.72;5064033;28;62094;-81
2022/06/28 12:46:40;;;;;;;;;0.00;0.00;;;;;-146.67;16.68;70977.72;5063435;28;61746;-80
2022/06/28 12:49:06;;;;;;;;;0.00;0.00;;;;;-146.67;16.88;71041.56;5071955;28;62518;-81
2022/06/28 12:51:31;;;;;;;;;0.00;0.00;;;;;-146.67;16.89;71117.34;5067060;27;62762;-80